Time,TemperatureF,DewpointF,PressureIn,WindDirection,WindDirectionDegrees,WindSpeedMPH,WindSpeedGustMPH,Humidity,HourlyPrecipIn,Conditions,Clouds,dailyrainin,SoftwareType,DateUTC
2013-06-29 00:05:00,66.5,58.3,29.91,WNW,283,0.0,-999.0,75,0.00,,,0.00,Wunderground v.1.15,2013-06-29 05:05:00,
2013-06-29 00:15:00,66.5,58.3,29.91,WNW,282,0.0,-999.0,75,0.00,,,0.00,Wunderground v.1.15,2013-06-29 05:15:00,
2013-06-29 00:25:00,66.3,58.5,29.91,WNW,283,0.0,-999.0,76,0.00,,,0.00,Wunderground v.1.15,2013-06-29 05:25:00,
2013-06-29 00:30:00,66.1,58.3,29.91,WNW,285,0.0,-999.0,76,0.00,,,0.00,Wunderground v.1.15,2013-06-29 05:30:00,
2013-06-29 00:40:00,65.4,58.4,29.91,West,270,0.0,-999.0,78,0.00,,,0.00,Wunderground v.1.15,2013-06-29 05:40:00,
2013-06-29 00:45:00,65.1,58.4,29.91,West,280,0.0,-999.0,79,0.00,,,0.00,Wunderground v.1.15,2013-06-29 05:45:00,
2013-06-29 00:55:00,64.9,58.2,29.92,West,278,0.0,-999.0,79,0.00,,,0.00,Wunderground v.1.15,2013-06-29 05:55:00,
2013-06-29 01:05:00,64.6,58.3,29.91,West,278,0.0,-999.0,80,0.00,,,0.00,Wunderground v.1.15,2013-06-29 06:05:00,
2013-06-29 01:15:00,64.2,58.2,29.91,WNW,282,0.0,-999.0,81,0.00,,,0.00,Wunderground v.1.15,2013-06-29 06:15:00,
2013-06-29 01:25:00,63.9,58.3,29.92,West,276,0.0,-999.0,82,0.00,,,0.00,Wunderground v.1.15,2013-06-29 06:25:00,
2013-06-29 01:30:00,63.6,58.3,29.91,West,276,0.0,-999.0,83,0.00,,,0.00,Wunderground v.1.15,2013-06-29 06:30:00,
2013-06-29 01:40:00,63.0,58.1,29.92,West,277,0.0,-999.0,84,0.00,,,0.00,Wunderground v.1.15,2013-06-29 06:40:00,
2013-06-29 01:45:00,62.8,57.9,29.92,WNW,292,0.0,-999.0,84,0.00,,,0.00,Wunderground v.1.15,2013-06-29 06:45:00,
2013-06-29 01:55:00,62.6,58.0,29.91,West,277,0.0,-999.0,85,0.00,,,0.00,Wunderground v.1.15,2013-06-29 06:55:00,
2013-06-29 02:00:00,62.5,57.6,29.91,West,277,0.0,-999.0,84,0.00,,,0.00,Wunderground v.1.15,2013-06-29 07:00:00,
2013-06-29 02:05:00,62.5,57.6,29.91,West,270,0.0,-999.0,84,0.00,,,0.00,Wunderground v.1.15,2013-06-29 07:05:00,
2013-06-29 02:15:00,62.4,57.5,29.91,WNW,282,1.0,-999.0,84,0.00,,,0.00,Wunderground v.1.15,2013-06-29 07:15:00,
2013-06-29 02:25:00,62.2,57.3,29.91,WNW,285,0.0,-999.0,84,0.00,,,0.00,Wunderground v.1.15,2013-06-29 07:25:00,
2013-06-29 02:35:00,62.3,57.4,29.91,West,259,0.0,-999.0,84,0.00,,,0.00,Wunderground v.1.15,2013-06-29 07:35:00,
2013-06-29 02:45:00,62.4,57.2,29.91,West,271,0.0,-999.0,83,0.00,,,0.00,Wunderground v.1.15,2013-06-29 07:45:00,
2013-06-29 02:55:00,62.5,57.3,29.92,WNW,297,0.0,-999.0,83,0.00,,,0.00,Wunderground v.1.15,2013-06-29 07:55:00,
2013-06-29 03:00:00,62.4,57.2,29.91,WNW,302,0.0,-999.0,83,0.00,,,0.00,Wunderground v.1.15,2013-06-29 08:00:00,
2013-06-29 03:05:00,62.4,57.2,29.92,NW,311,0.0,-999.0,83,0.00,,,0.00,Wunderground v.1.15,2013-06-29 08:05:00,
2013-06-29 03:15:00,62.2,57.0,29.91,NW,305,0.0,-999.0,83,0.00,,,0.00,Wunderground v.1.15,2013-06-29 08:15:00,
2013-06-29 03:25:00,62.0,56.8,29.92,WNW,292,0.0,-999.0,83,0.00,,,0.00,Wunderground v.1.15,2013-06-29 08:25:00,
2013-06-29 03:35:00,61.6,56.7,29.92,West,273,0.0,-999.0,84,0.00,,,0.00,Wunderground v.1.15,2013-06-29 08:35:00,
2013-06-29 03:45:00,61.3,56.4,29.92,West,277,0.0,-999.0,84,0.00,,,0.00,Wunderground v.1.15,2013-06-29 08:45:00,
2013-06-29 03:55:00,61.2,56.7,29.92,West,277,0.0,-999.0,85,0.00,,,0.00,Wunderground v.1.15,2013-06-29 08:55:00,
2013-06-29 04:00:00,61.1,56.6,29.92,WNW,285,0.0,-999.0,85,0.00,,,0.00,Wunderground v.1.15,2013-06-29 09:00:00,
2013-06-29 04:05:00,61.0,56.5,29.92,WNW,282,0.0,-999.0,85,0.00,,,0.00,Wunderground v.1.15,2013-06-29 09:05:00,
2013-06-29 04:15:00,61.1,56.6,29.92,NW,305,0.0,-999.0,85,0.00,,,0.00,Wunderground v.1.15,2013-06-29 09:15:00,
2013-06-29 04:25:00,61.2,56.3,29.92,NW,314,0.0,-999.0,84,0.00,,,0.00,Wunderground v.1.15,2013-06-29 09:25:00,
2013-06-29 04:35:00,61.2,56.3,29.92,NW,308,0.0,-999.0,84,0.00,,,0.00,Wunderground v.1.15,2013-06-29 09:35:00,
2013-06-29 04:45:00,61.1,56.2,29.92,NW,314,0.0,-999.0,84,0.00,,,0.00,Wunderground v.1.15,2013-06-29 09:45:00,
2013-06-29 04:55:00,60.8,56.3,29.92,West,280,0.0,-999.0,85,0.00,,,0.00,Wunderground v.1.15,2013-06-29 09:55:00,
2013-06-29 05:00:00,60.7,56.2,29.93,West,281,0.0,-999.0,85,0.00,,,0.00,Wunderground v.1.15,2013-06-29 10:00:00,
2013-06-29 05:05:00,60.7,56.2,29.93,West,269,0.0,-999.0,85,0.00,,,0.00,Wunderground v.1.15,2013-06-29 10:05:00,
2013-06-29 05:15:00,60.6,56.1,29.93,NW,305,0.0,-999.0,85,0.00,,,0.00,Wunderground v.1.15,2013-06-29 10:15:00,
2013-06-29 05:25:00,60.6,56.1,29.93,NW,308,0.0,-999.0,85,0.00,,,0.00,Wunderground v.1.15,2013-06-29 10:25:00,
2013-06-29 05:35:00,60.4,55.9,29.93,WNW,297,0.0,-999.0,85,0.00,,,0.00,Wunderground v.1.15,2013-06-29 10:35:00,
2013-06-29 05:45:00,60.2,55.7,29.93,WNW,296,0.0,-999.0,85,0.00,,,0.00,Wunderground v.1.15,2013-06-29 10:45:00,
2013-06-29 05:55:00,61.2,56.0,29.93,NW,305,0.0,-999.0,83,0.00,,,0.00,Wunderground v.1.15,2013-06-29 10:55:00,
2013-06-29 06:05:00,61.2,56.3,29.93,WNW,291,0.0,-999.0,84,0.00,,,0.00,Wunderground v.1.15,2013-06-29 11:05:00,
2013-06-29 06:15:00,60.7,55.8,29.94,WNW,284,0.0,-999.0,84,0.00,,,0.00,Wunderground v.1.15,2013-06-29 11:15:00,
2013-06-29 06:25:00,60.1,55.9,29.94,WNW,284,0.0,-999.0,86,0.00,,,0.00,Wunderground v.1.15,2013-06-29 11:25:00,
2013-06-29 06:35:00,59.9,56.0,29.93,WNW,284,0.0,-999.0,87,0.00,,,0.00,Wunderground v.1.15,2013-06-29 11:35:00,
2013-06-29 06:45:00,60.2,56.0,29.93,West,277,0.0,-999.0,86,0.00,,,0.00,Wunderground v.1.15,2013-06-29 11:45:00,
2013-06-29 06:55:00,60.6,56.4,29.94,West,278,0.0,-999.0,86,0.00,,,0.00,Wunderground v.1.15,2013-06-29 11:55:00,
2013-06-29 07:05:00,61.3,56.8,29.94,WNW,283,0.0,-999.0,85,0.00,,,0.00,Wunderground v.1.15,2013-06-29 12:05:00,
2013-06-29 07:10:00,61.7,56.8,29.94,WNW,293,0.0,-999.0,84,0.00,,,0.00,Wunderground v.1.15,2013-06-29 12:10:00,
2013-06-29 07:15:00,62.1,56.9,29.94,WNW,283,0.0,-999.0,83,0.00,,,0.00,Wunderground v.1.15,2013-06-29 12:15:00,
2013-06-29 07:25:00,62.8,57.6,29.94,WNW,288,0.0,-999.0,83,0.00,,,0.00,Wunderground v.1.15,2013-06-29 12:25:00,
2013-06-29 07:35:00,63.2,57.9,29.94,WNW,288,0.0,-999.0,83,0.00,,,0.00,Wunderground v.1.15,2013-06-29 12:35:00,
2013-06-29 07:45:00,64.2,58.2,29.94,NW,307,0.0,-999.0,81,0.00,,,0.00,Wunderground v.1.15,2013-06-29 12:45:00,
2013-06-29 07:55:00,66.6,58.1,29.94,NW,323,2.0,-999.0,74,0.00,,,0.00,Wunderground v.1.15,2013-06-29 12:55:00,
2013-06-29 08:05:00,68.0,58.6,29.94,WNW,291,1.0,-999.0,72,0.00,,,0.00,Wunderground v.1.15,2013-06-29 13:05:00,
2013-06-29 08:10:00,68.5,58.3,29.94,WNW,294,1.0,-999.0,70,0.00,,,0.00,Wunderground v.1.15,2013-06-29 13:10:00,
2013-06-29 08:15:00,68.8,58.6,29.94,WNW,302,1.0,-999.0,70,0.00,,,0.00,Wunderground v.1.15,2013-06-29 13:15:00,
2013-06-29 08:25:00,69.3,59.1,29.94,WNW,293,2.0,-999.0,70,0.00,,,0.00,Wunderground v.1.15,2013-06-29 13:25:00,
2013-06-29 08:35:00,70.0,59.0,29.95,NW,314,2.0,-999.0,68,0.00,,,0.00,Wunderground v.1.15,2013-06-29 13:35:00,
2013-06-29 08:45:00,70.8,58.9,29.94,NW,312,1.0,-999.0,66,0.00,,,0.00,Wunderground v.1.15,2013-06-29 13:45:00,
2013-06-29 08:55:00,71.2,58.4,29.94,NW,306,2.0,-999.0,64,0.00,,,0.00,Wunderground v.1.15,2013-06-29 13:55:00,
2013-06-29 09:05:00,71.6,58.3,29.94,NW,308,3.0,-999.0,63,0.00,,,0.00,Wunderground v.1.15,2013-06-29 14:05:00,
2013-06-29 09:10:00,71.7,58.4,29.94,West,281,3.0,-999.0,63,0.00,,,0.00,Wunderground v.1.15,2013-06-29 14:10:00,
2013-06-29 09:15:00,72.0,58.7,29.94,East,94,3.0,-999.0,63,0.00,,,0.00,Wunderground v.1.15,2013-06-29 14:15:00,
2013-06-29 09:25:00,72.3,57.6,29.94,NW,312,3.0,-999.0,60,0.00,,,0.00,Wunderground v.1.15,2013-06-29 14:25:00,
2013-06-29 09:35:00,73.1,58.4,29.94,NW,309,3.0,-999.0,60,0.00,,,0.00,Wunderground v.1.15,2013-06-29 14:35:00,
2013-06-29 09:45:00,73.9,57.7,29.94,WNW,297,2.0,-999.0,57,0.00,,,0.00,Wunderground v.1.15,2013-06-29 14:45:00,
2013-06-29 09:55:00,74.0,57.3,29.93,WNW,302,3.0,-999.0,56,0.00,,,0.00,Wunderground v.1.15,2013-06-29 14:55:00,
2013-06-29 10:05:00,74.4,57.2,29.94,NW,304,3.0,-999.0,55,0.00,,,0.00,Wunderground v.1.15,2013-06-29 15:05:00,
2013-06-29 10:10:00,74.9,58.1,29.94,NW,326,3.0,-999.0,56,0.00,,,0.00,Wunderground v.1.15,2013-06-29 15:10:00,
2013-06-29 10:20:00,75.3,58.0,29.94,NW,314,4.0,-999.0,55,0.00,,,0.00,Wunderground v.1.15,2013-06-29 15:20:00,
2013-06-29 10:25:00,75.5,57.2,29.94,NW,325,3.0,-999.0,53,0.00,,,0.00,Wunderground v.1.15,2013-06-29 15:25:00,
2013-06-29 10:35:00,75.5,57.7,29.94,WNW,300,3.0,-999.0,54,0.00,,,0.00,Wunderground v.1.15,2013-06-29 15:35:00,
2013-06-29 10:45:00,75.9,57.5,29.94,NNW,336,3.0,-999.0,53,0.00,,,0.00,Wunderground v.1.15,2013-06-29 15:45:00,
2013-06-29 10:55:00,76.4,56.9,29.93,NW,308,2.0,-999.0,51,0.00,,,0.00,Wunderground v.1.15,2013-06-29 15:55:00,
2013-06-29 11:05:00,76.7,56.7,29.93,NW,326,3.0,-999.0,50,0.00,,,0.00,Wunderground v.1.15,2013-06-29 16:05:00,
2013-06-29 11:10:00,76.7,56.1,29.94,NW,326,3.0,-999.0,49,0.00,,,0.00,Wunderground v.1.15,2013-06-29 16:10:00,
2013-06-29 11:20:00,76.6,56.0,29.94,NW,316,3.0,-999.0,49,0.00,,,0.00,Wunderground v.1.15,2013-06-29 16:20:00,
2013-06-29 11:25:00,76.8,56.2,29.94,WNW,295,3.0,-999.0,49,0.00,,,0.00,Wunderground v.1.15,2013-06-29 16:25:00,
2013-06-29 11:35:00,77.1,56.5,29.94,WNW,293,2.0,-999.0,49,0.00,,,0.00,Wunderground v.1.15,2013-06-29 16:35:00,
2013-06-29 11:45:00,77.4,57.3,29.94,NW,312,2.0,-999.0,50,0.00,,,0.00,Wunderground v.1.15,2013-06-29 16:45:00,
2013-06-29 11:55:00,77.5,56.8,29.94,NNE,19,3.0,-999.0,49,0.00,,,0.00,Wunderground v.1.15,2013-06-29 16:55:00,
2013-06-29 12:05:00,77.2,56.6,29.94,NW,316,2.0,-999.0,49,0.00,,,0.00,Wunderground v.1.15,2013-06-29 17:05:00,
2013-06-29 12:15:00,76.9,56.3,29.94,NW,315,3.0,-999.0,49,0.00,,,0.00,Wunderground v.1.15,2013-06-29 17:15:00,
2013-06-29 12:20:00,77.3,57.2,29.94,NW,311,3.0,-999.0,50,0.00,,,0.00,Wunderground v.1.15,2013-06-29 17:20:00,
2013-06-29 12:25:00,78.0,57.9,29.94,NW,309,2.0,-999.0,50,0.00,,,0.00,Wunderground v.1.15,2013-06-29 17:25:00,
2013-06-29 12:35:00,78.3,57.0,29.94,NW,316,2.0,-999.0,48,0.00,,,0.00,Wunderground v.1.15,2013-06-29 17:35:00,
2013-06-29 12:45:00,78.1,56.8,29.94,ENE,61,3.0,-999.0,48,0.00,,,0.00,Wunderground v.1.15,2013-06-29 17:45:00,
2013-06-29 12:55:00,79.3,55.5,29.94,North,355,2.0,-999.0,44,0.00,,,0.00,Wunderground v.1.15,2013-06-29 17:55:00,
2013-06-29 13:05:00,79.2,55.4,29.94,NW,315,2.0,-999.0,44,0.00,,,0.00,Wunderground v.1.15,2013-06-29 18:05:00,
2013-06-29 13:15:00,78.8,55.7,29.94,NW,319,3.0,-999.0,45,0.00,,,0.00,Wunderground v.1.15,2013-06-29 18:15:00,
2013-06-29 13:25:00,78.9,55.8,29.93,NW,308,2.0,-999.0,45,0.00,,,0.00,Wunderground v.1.15,2013-06-29 18:25:00,
2013-06-29 13:35:00,78.6,55.5,29.93,NW,315,4.0,-999.0,45,0.00,,,0.00,Wunderground v.1.15,2013-06-29 18:35:00,
2013-06-29 13:45:00,78.3,54.6,29.93,NW,326,3.0,-999.0,44,0.00,,,0.00,Wunderground v.1.15,2013-06-29 18:45:00,
2013-06-29 13:50:00,77.9,54.8,29.93,NW,309,4.0,-999.0,45,0.00,,,0.00,Wunderground v.1.15,2013-06-29 18:50:00,
2013-06-29 14:00:00,78.5,54.8,29.93,NW,308,3.0,-999.0,44,0.00,,,0.00,Wunderground v.1.15,2013-06-29 19:00:00,
2013-06-29 14:05:00,79.1,56.5,29.93,WNW,297,3.0,-999.0,46,0.00,,,0.00,Wunderground v.1.15,2013-06-29 19:05:00,
2013-06-29 14:15:00,79.3,55.5,29.93,NNW,340,2.0,-999.0,44,0.00,,,0.00,Wunderground v.1.15,2013-06-29 19:15:00,
2013-06-29 14:25:00,79.5,55.7,29.93,NW,309,3.0,-999.0,44,0.00,,,0.00,Wunderground v.1.15,2013-06-29 19:25:00,
2013-06-29 14:30:00,79.7,56.5,29.92,North,351,3.0,-999.0,45,0.00,,,0.00,Wunderground v.1.15,2013-06-29 19:30:00,
2013-06-29 14:35:00,80.2,56.9,29.92,WNW,287,2.0,-999.0,45,0.00,,,0.00,Wunderground v.1.15,2013-06-29 19:35:00,
2013-06-29 14:45:00,79.6,55.8,29.92,SW,217,5.0,-999.0,44,0.00,,,0.00,Wunderground v.1.15,2013-06-29 19:45:00,
2013-06-29 14:55:00,80.3,56.4,29.92,NNW,335,2.0,-999.0,44,0.00,,,0.00,Wunderground v.1.15,2013-06-29 19:55:00,
2013-06-29 15:05:00,79.3,55.5,29.92,NW,316,2.0,-999.0,44,0.00,,,0.00,Wunderground v.1.15,2013-06-29 20:05:00,
2013-06-29 15:15:00,77.9,54.8,29.92,NW,323,2.0,-999.0,45,0.00,,,0.00,Wunderground v.1.15,2013-06-29 20:15:00,
2013-06-29 15:25:00,79.0,56.5,29.92,NW,309,2.0,-999.0,46,0.00,,,0.00,Wunderground v.1.15,2013-06-29 20:25:00,
2013-06-29 15:30:00,78.3,55.2,29.92,NW,312,3.0,-999.0,45,0.00,,,0.00,Wunderground v.1.15,2013-06-29 20:30:00,
2013-06-29 15:35:00,77.8,55.4,29.92,NW,304,3.0,-999.0,46,0.00,,,0.00,Wunderground v.1.15,2013-06-29 20:35:00,
2013-06-29 15:45:00,79.7,55.9,29.92,NW,326,2.0,-999.0,44,0.00,,,0.00,Wunderground v.1.15,2013-06-29 20:45:00,
2013-06-29 15:55:00,80.6,56.7,29.91,NNW,328,2.0,-999.0,44,0.00,,,0.00,Wunderground v.1.15,2013-06-29 20:55:00,
2013-06-29 16:05:00,78.8,56.3,29.92,NNW,327,2.0,-999.0,46,0.00,,,0.00,Wunderground v.1.15,2013-06-29 21:05:00,
2013-06-29 16:15:00,77.8,56.0,29.92,SSW,208,1.0,-999.0,47,0.00,,,0.00,Wunderground v.1.15,2013-06-29 21:15:00,
2013-06-29 16:25:00,77.6,56.9,29.92,WSW,257,1.0,-999.0,49,0.00,,,0.00,Wunderground v.1.15,2013-06-29 21:25:00,
2013-06-29 16:30:00,77.4,56.7,29.92,North,1,1.0,-999.0,49,0.00,,,0.00,Wunderground v.1.15,2013-06-29 21:30:00,
2013-06-29 16:35:00,77.2,57.1,29.92,NW,314,1.0,-999.0,50,0.00,,,0.00,Wunderground v.1.15,2013-06-29 21:35:00,
2013-06-29 16:45:00,78.3,58.1,29.92,WNW,293,1.0,-999.0,50,0.00,,,0.00,Wunderground v.1.15,2013-06-29 21:45:00,
2013-06-29 16:55:00,78.9,58.1,29.91,SSE,163,1.0,-999.0,49,0.00,,,0.00,Wunderground v.1.15,2013-06-29 21:55:00,
2013-06-29 17:05:00,79.0,57.0,29.91,NW,320,2.0,-999.0,47,0.00,,,0.00,Wunderground v.1.15,2013-06-29 22:05:00,
2013-06-29 17:15:00,79.1,57.7,29.91,NW,315,2.0,-999.0,48,0.00,,,0.00,Wunderground v.1.15,2013-06-29 22:15:00,
2013-06-29 17:25:00,79.6,56.4,29.91,NNW,331,2.0,-999.0,45,0.00,,,0.00,Wunderground v.1.15,2013-06-29 22:25:00,
2013-06-29 17:35:00,79.4,55.6,29.91,NE,39,3.0,-999.0,44,0.00,,,0.00,Wunderground v.1.15,2013-06-29 22:35:00,
2013-06-29 17:45:00,79.2,54.8,29.91,NE,37,2.0,-999.0,43,0.00,,,0.00,Wunderground v.1.15,2013-06-29 22:45:00,
2013-06-29 17:55:00,79.2,55.4,29.91,NW,308,2.0,-999.0,44,0.00,,,0.00,Wunderground v.1.15,2013-06-29 22:55:00,
2013-06-29 18:05:00,79.6,55.1,29.90,NW,313,2.0,-999.0,43,0.00,,,0.00,Wunderground v.1.15,2013-06-29 23:05:00,
2013-06-29 18:15:00,79.3,56.7,29.90,NE,37,2.0,-999.0,46,0.00,,,0.00,Wunderground v.1.15,2013-06-29 23:15:00,
2013-06-29 18:25:00,77.7,57.0,29.90,NW,322,1.0,-999.0,49,0.00,,,0.00,Wunderground v.1.15,2013-06-29 23:25:00,
2013-06-29 18:35:00,76.9,56.8,29.90,NW,311,1.0,-999.0,50,0.00,,,0.00,Wunderground v.1.15,2013-06-29 23:35:00,
2013-06-29 18:40:00,76.8,57.3,29.90,WNW,293,1.0,-999.0,51,0.00,,,0.00,Wunderground v.1.15,2013-06-29 23:40:00,
2013-06-29 18:45:00,76.9,58.5,29.90,WNW,285,0.0,-999.0,53,0.00,,,0.00,Wunderground v.1.15,2013-06-29 23:45:00,
2013-06-29 18:55:00,76.6,59.2,29.91,North,1,1.0,-999.0,55,0.00,,,0.00,Wunderground v.1.15,2013-06-29 23:55:00,
2013-06-29 19:05:00,76.5,58.6,29.91,NW,314,0.0,-999.0,54,0.00,,,0.00,Wunderground v.1.15,2013-06-30 00:05:00,
2013-06-29 19:15:00,76.3,57.9,29.91,NW,326,1.0,-999.0,53,0.00,,,0.00,Wunderground v.1.15,2013-06-30 00:15:00,
2013-06-29 19:25:00,75.3,56.5,29.91,NW,312,1.0,-999.0,52,0.00,,,0.00,Wunderground v.1.15,2013-06-30 00:25:00,
2013-06-29 19:35:00,74.8,56.0,29.91,NW,320,1.0,-999.0,52,0.00,,,0.00,Wunderground v.1.15,2013-06-30 00:35:00,
2013-06-29 19:40:00,74.4,56.2,29.91,NW,316,1.0,-999.0,53,0.00,,,0.00,Wunderground v.1.15,2013-06-30 00:40:00,
2013-06-29 19:45:00,74.2,56.5,29.91,NW,314,1.0,-999.0,54,0.00,,,0.00,Wunderground v.1.15,2013-06-30 00:45:00,
2013-06-29 19:55:00,74.3,56.6,29.91,NNW,345,1.0,-999.0,54,0.00,,,0.00,Wunderground v.1.15,2013-06-30 00:55:00,
2013-06-29 20:05:00,74.2,57.0,29.92,WNW,302,1.0,-999.0,55,0.00,,,0.00,Wunderground v.1.15,2013-06-30 01:05:00,
2013-06-29 20:15:00,73.8,57.6,29.92,NW,316,0.0,-999.0,57,0.00,,,0.00,Wunderground v.1.15,2013-06-30 01:15:00,
2013-06-29 20:25:00,73.4,57.7,29.92,WNW,290,0.0,-999.0,58,0.00,,,0.00,Wunderground v.1.15,2013-06-30 01:25:00,
2013-06-29 20:35:00,72.8,58.1,29.92,NW,310,0.0,-999.0,60,0.00,,,0.00,Wunderground v.1.15,2013-06-30 01:35:00,
2013-06-29 20:40:00,72.6,58.4,29.92,North,4,0.0,-999.0,61,0.00,,,0.00,Wunderground v.1.15,2013-06-30 01:40:00,
2013-06-29 20:45:00,72.5,58.3,29.92,NW,305,0.0,-999.0,61,0.00,,,0.00,Wunderground v.1.15,2013-06-30 01:45:00,
2013-06-29 20:55:00,72.0,58.3,29.92,West,280,0.0,-999.0,62,0.00,,,0.00,Wunderground v.1.15,2013-06-30 01:55:00,
2013-06-29 21:05:00,71.4,58.1,29.92,West,263,0.0,-999.0,63,0.00,,,0.00,Wunderground v.1.15,2013-06-30 02:05:00,
2013-06-29 21:15:00,70.8,58.4,29.92,NNW,338,0.0,-999.0,65,0.00,,,0.00,Wunderground v.1.15,2013-06-30 02:15:00,
2013-06-29 21:25:00,70.2,58.3,29.92,NW,321,0.0,-999.0,66,0.00,,,0.00,Wunderground v.1.15,2013-06-30 02:25:00,
2013-06-29 21:35:00,69.6,58.6,29.93,NNE,27,0.0,-999.0,68,0.00,,,0.00,Wunderground v.1.15,2013-06-30 02:35:00,
2013-06-29 21:45:00,69.0,58.4,29.93,NNE,16,0.0,-999.0,69,0.00,,,0.00,Wunderground v.1.15,2013-06-30 02:45:00,
2013-06-29 21:55:00,68.6,58.4,29.93,North,352,0.0,-999.0,70,0.00,,,0.00,Wunderground v.1.15,2013-06-30 02:55:00,
2013-06-29 22:05:00,68.2,58.4,29.93,ENE,68,0.0,-999.0,71,0.00,,,0.00,Wunderground v.1.15,2013-06-30 03:05:00,
2013-06-29 22:10:00,68.0,58.2,29.93,NW,305,0.0,-999.0,71,0.00,,,0.00,Wunderground v.1.15,2013-06-30 03:10:00,
2013-06-29 22:20:00,67.6,58.2,29.94,NW,305,0.0,-999.0,72,0.00,,,0.00,Wunderground v.1.15,2013-06-30 03:20:00,
2013-06-29 22:25:00,67.5,58.2,29.94,NW,305,0.0,-999.0,72,0.00,,,0.00,Wunderground v.1.15,2013-06-30 03:25:00,
2013-06-29 22:35:00,67.1,57.8,29.94,North,352,0.0,-999.0,72,0.00,,,0.00,Wunderground v.1.15,2013-06-30 03:35:00,
2013-06-29 22:45:00,67.0,58.1,29.95,NW,314,0.0,-999.0,73,0.00,,,0.00,Wunderground v.1.15,2013-06-30 03:45:00,
2013-06-29 22:55:00,66.8,58.2,29.95,NW,311,0.0,-999.0,74,0.00,,,0.00,Wunderground v.1.15,2013-06-30 03:55:00,
2013-06-29 23:05:00,66.6,58.1,29.95,NW,310,0.0,-999.0,74,0.00,,,0.00,Wunderground v.1.15,2013-06-30 04:05:00,
2013-06-29 23:10:00,66.3,58.1,29.95,NW,310,0.0,-999.0,75,0.00,,,0.00,Wunderground v.1.15,2013-06-30 04:10:00,
2013-06-29 23:20:00,65.8,58.0,29.96,NW,310,0.0,-999.0,76,0.00,,,0.00,Wunderground v.1.15,2013-06-30 04:20:00,
2013-06-29 23:25:00,65.6,57.8,29.96,NW,310,0.0,-999.0,76,0.00,,,0.00,Wunderground v.1.15,2013-06-30 04:25:00,
2013-06-29 23:35:00,65.2,57.8,29.96,NW,310,0.0,-999.0,77,0.00,,,0.00,Wunderground v.1.15,2013-06-30 04:35:00,
2013-06-29 23:40:00,64.9,57.5,29.95,NW,310,0.0,-999.0,77,0.00,,,0.00,Wunderground v.1.15,2013-06-30 04:40:00,
2013-06-29 23:45:00,64.7,57.7,29.95,NW,310,0.0,-999.0,78,0.00,,,0.00,Wunderground v.1.15,2013-06-30 04:45:00,
2013-06-29 23:55:00,64.7,57.3,29.96,NW,310,0.0,-999.0,77,0.00,,,0.00,Wunderground v.1.15,2013-06-30 04:55:00,